Main page
Satellite images 15-day forecastsClimateMarine weather Cyclones Lightning AirportsFAQ Newsletter About
Weather : Europe Africa North America South America Asia Australia-Oceania Others
Languages Contact

Buenos Aires, Argentina

Aeroparque Jorge Newbery

latitude: 34-34S, longitude: 058-25W, elevation: 6 m


METAR: SABE 200800Z 02003KT CAVOK 15/14 Q1017
short-TAF: out of date (16786 hours)
long-TAF: SABE 200500Z 2006/2106 27005KT CAVOK TX21/2018Z TN15/2010Z BECMG 2010/2012 36010KT

Time: 05:45 (08:45 UTC)

Current weather observation

The report was made 45 minutes ago, at 08:00 UTC  
Wind 03 kt from the North/Northeast
Temperature 15°C
Humidity 94%
Pressure 1017 hPa
Visibility 10 km or more
no clouds below 1500 m and no cumulonimbus

Change units

Forecast

The report was made 3 hours and 37 minutes ago, at 05:08 UTC  
Forecast valid from 20 at 06 UTC to 21 at 06 UTC
Wind 05 kt from the West
Visibility 10 km or more
no clouds below 1500 m and no cumulonimbus
Becoming
from 20 at 10 UTC to 20 at 12 UTC
Wind 10 kt from the North
The information on this site is subject to a disclaimer
Weather : Europe Africa North America South America Asia Australia-Oceania Others
Satellite images 15-day forecastsClimateMarine weather Cyclones Lightning AirportsFAQ Languages Contact Newsletter About